TimeCDT,TemperatureF,Dew PointF,Humidity,Sea Level PressureIn,VisibilityMPH,Wind Direction,Wind SpeedMPH,Gust SpeedMPH,PrecipitationIn,Events,Conditions,WindDirDegrees,DateUTC
12:58 AM,57.6,46.0,65,30.09,10.0,SSE,6.9,-,N/A,,Clear,160,2013-10-09 05:58:00
1:58 AM,58.5,46.6,65,30.09,10.0,South,8.1,-,N/A,,Clear,180,2013-10-09 06:58:00
2:58 AM,57.4,46.6,67,30.09,10.0,South,4.6,-,N/A,,Clear,180,2013-10-09 07:58:00
3:58 AM,54.0,46.0,75,30.12,10.0,South,4.6,-,N/A,,Clear,170,2013-10-09 08:58:00
4:33 AM,46.4,44.6,93,30.12,9.0,ESE,4.6,-,N/A,,Clear,110,2013-10-09 09:33:00
4:38 AM,46.4,44.6,93,30.12,8.0,SE,4.6,-,N/A,,Clear,130,2013-10-09 09:38:00
4:58 AM,42.8,42.8,100,30.13,4.0,Variable,3.5,-,N/A,,Clear,0,2013-10-09 09:58:00
5:03 AM,42.8,42.8,100,30.12,4.0,SSE,4.6,-,N/A,,Clear,150,2013-10-09 10:03:00
5:08 AM,44.6,44.6,100,30.12,3.0,SSE,5.8,-,N/A,,Clear,150,2013-10-09 10:08:00
5:13 AM,42.8,42.8,100,30.12,3.0,SSE,5.8,-,N/A,,Clear,160,2013-10-09 10:13:00
5:58 AM,43.5,43.3,99,30.14,6.0,SE,3.5,-,N/A,,Clear,130,2013-10-09 10:58:00
6:03 AM,42.8,42.8,100,30.13,7.0,SSE,2.3,-,N/A,,Clear,150,2013-10-09 11:03:00
6:13 AM,42.8,42.8,100,30.13,10.0,SSE,3.5,-,N/A,,Clear,150,2013-10-09 11:13:00
6:58 AM,50.0,46.4,87,30.14,10.0,SSE,8.1,-,N/A,,Partly Cloudy,160,2013-10-09 11:58:00
7:58 AM,53.6,48.2,82,30.16,10.0,SSE,6.9,-,N/A,,Scattered Clouds,160,2013-10-09 12:58:00
8:58 AM,59.0,48.2,67,30.15,10.0,South,8.1,-,N/A,,Scattered Clouds,170,2013-10-09 13:58:00
9:58 AM,62.6,50.0,63,30.17,10.0,South,8.1,-,N/A,,Scattered Clouds,170,2013-10-09 14:58:00
10:58 AM,66.2,50.0,56,30.18,10.0,South,11.5,17.3,N/A,,Scattered Clouds,180,2013-10-09 15:58:00
11:58 AM,68.2,49.1,50,30.17,10.0,South,13.8,-,N/A,,Mostly Cloudy,180,2013-10-09 16:58:00
12:58 PM,71.6,50.0,46,30.16,10.0,South,11.5,-,N/A,,Mostly Cloudy,170,2013-10-09 17:58:00
1:58 PM,71.6,48.2,43,30.14,10.0,SSE,11.5,-,N/A,,Mostly Cloudy,150,2013-10-09 18:58:00
2:58 PM,71.6,50.0,46,30.13,10.0,South,6.9,-,N/A,,Mostly Cloudy,170,2013-10-09 19:58:00
3:58 PM,73.4,48.2,41,30.13,10.0,SSE,8.1,-,N/A,,Mostly Cloudy,160,2013-10-09 20:58:00
4:58 PM,71.6,46.4,41,30.14,10.0,SSE,5.8,-,N/A,,Scattered Clouds,160,2013-10-09 21:58:00
5:58 PM,68.0,48.2,49,30.13,10.0,SE,5.8,-,N/A,,Scattered Clouds,140,2013-10-09 22:58:00
6:58 PM,55.4,48.2,77,30.13,10.0,SE,4.6,-,N/A,,Scattered Clouds,130,2013-10-09 23:58:00
7:58 PM,51.8,46.4,82,30.13,10.0,SSE,3.5,-,N/A,,Partly Cloudy,150,2013-10-10 00:58:00
8:58 PM,46.4,46.4,100,30.13,10.0,East,2.3,-,N/A,,Clear,100,2013-10-10 01:58:00
9:58 PM,42.8,42.8,100,30.14,10.0,ESE,3.5,-,N/A,,Clear,120,2013-10-10 02:58:00
10:50 PM,41.0,41.0,100,30.12,6.0,SSE,3.5,-,N/A,,Clear,150,2013-10-10 03:50:00
10:58 PM,41.2,41.2,100,30.14,5.0,ESE,3.5,-,N/A,,Clear,110,2013-10-10 03:58:00
11:03 PM,41.0,41.0,100,30.13,2.5,East,4.6,-,N/A,,Clear,100,2013-10-10 04:03:00
11:08 PM,39.2,39.2,100,30.13,1.5,ESE,3.5,-,N/A,,Clear,110,2013-10-10 04:08:00
11:13 PM,41.0,41.0,100,30.13,1.0,ESE,3.5,-,N/A,,Clear,120,2013-10-10 04:13:00
11:18 PM,41.0,41.0,100,30.13,1.2,ESE,4.6,-,N/A,,Clear,110,2013-10-10 04:18:00
11:23 PM,41.0,41.0,100,30.13,3.0,East,5.8,-,N/A,,Clear,100,2013-10-10 04:23:00
11:28 PM,41.0,41.0,100,30.13,7.0,East,5.8,-,N/A,,Clear,100,2013-10-10 04:28:00
11:33 PM,41.0,41.0,100,30.13,5.0,East,4.6,-,N/A,,Clear,90,2013-10-10 04:33:00
11:43 PM,42.8,42.8,100,30.13,5.0,ESE,3.5,-,N/A,,Clear,110,2013-10-10 04:43:00
11:48 PM,42.8,42.8,100,30.13,10.0,East,4.6,-,N/A,,Clear,100,2013-10-10 04:48:00
11:58 PM,42.6,42.6,100,30.15,10.0,ESE,4.6,-,N/A,,Clear,120,2013-10-10 04:58:00